Time;durP1;ratioP1;P1;durP2;ratioP2;P2;SDS_P1;SDS_P2;PMS_P1;PMS_P2;Temp;Humidity;BMP_temperature;BMP_pressure;BME280_temperature;BME280_humidity;BME280_pressure;Samples;Min_cycle;Max_cycle;Signal;HPM_P1;HPM_P2
2023/10/03 00:00:32;;;;;;;25.17;5.00;;;;;;;;;;5031308;28;20498;-39
2023/10/03 00:03:00;;;;;;;21.83;4.97;;;;;;;;;;5031825;28;20038;-37
2023/10/03 00:05:28;;;;;;;18.27;4.55;;;;;;;;;;5014791;28;20369;-38
2023/10/03 00:08:00;;;;;;;20.52;4.78;;;;;;;;;;5023472;28;20108;-38
2023/10/03 00:10:30;;;;;;;18.25;4.47;;;;;;;;;;5033798;28;20025;-39
2023/10/03 00:12:59;;;;;;;23.85;4.20;;;;;;;;;;5035716;28;20032;-37
2023/10/03 00:15:30;;;;;;;21.13;5.10;;;;;;;;;;5030083;28;20047;-41
2023/10/03 00:17:57;;;;;;;28.40;4.53;;;;;;;;;;5027337;28;20124;-39
2023/10/03 00:20:24;;;;;;;31.85;4.75;;;;;;;;;;5029533;28;20676;-38
2023/10/03 00:22:52;;;;;;;22.15;4.45;;;;;;;;;;5021925;28;20033;-38
2023/10/03 00:25:21;;;;;;;28.38;4.65;;;;;;;;;;5019091;28;20054;-40
2023/10/03 00:28:01;;;;;;;23.00;4.25;;;;;;;;;;5018861;28;20113;-40
2023/10/03 00:30:29;;;;;;;26.33;4.35;;;;;;;;;;5014844;28;20022;-39
2023/10/03 00:32:57;;;;;;;25.30;3.53;;;;;;;;;;5016020;28;20037;-40
2023/10/03 00:35:26;;;;;;;28.13;4.03;;;;;;;;;;5014672;28;20053;-42
2023/10/03 00:37:54;;;;;;;32.65;4.15;;;;;;;;;;5015238;28;20080;-40
2023/10/03 00:43:01;;;;;;;29.13;4.18;;;;;;;;;;5016723;28;20072;-42
2023/10/03 00:45:32;;;;;;;23.35;3.53;;;;;;;;;;5013062;28;20523;-38
2023/10/03 00:48:00;;;;;;;38.45;4.25;;;;;;;;;;5012860;28;20602;-40
2023/10/03 00:50:27;;;;;;;31.10;4.20;;;;;;;;;;5013880;28;20081;-40
2023/10/03 00:52:58;;;;;;;26.45;4.30;;;;;;;;;;5020760;28;20026;-42
2023/10/03 00:55:29;;;;;;;23.58;4.70;;;;;;;;;;5026438;28;20029;-39
2023/10/03 01:00:37;;;;;;;22.08;4.15;;;;;;;;;;5030782;28;20028;-42
2023/10/03 01:03:05;;;;;;;26.02;4.53;;;;;;;;;;5031183;28;20107;-40
2023/10/03 01:05:33;;;;;;;22.55;4.43;;;;;;;;;;5029212;28;20037;-40
2023/10/03 01:08:00;;;;;;;21.75;3.75;;;;;;;;;;5031147;28;20033;-39
2023/10/03 01:10:27;;;;;;;19.33;3.58;;;;;;;;;;5029827;28;20116;-39
2023/10/03 01:12:54;;;;;;;21.23;3.53;;;;;;;;;;5018473;28;20027;-39
2023/10/03 01:15:22;;;;;;;20.63;3.50;;;;;;;;;;5027311;28;20021;-42
2023/10/03 01:17:53;;;;;;;14.77;3.03;;;;;;;;;;5023807;28;20037;-40
2023/10/03 01:20:24;;;;;;;33.13;4.43;;;;;;;;;;5013349;28;20156;-42
2023/10/03 01:22:54;;;;;;;15.00;3.42;;;;;;;;;;5023600;28;20034;-41
2023/10/03 01:25:21;;;;;;;23.80;3.35;;;;;;;;;;5026676;28;20101;-40
2023/10/03 01:27:48;;;;;;;21.80;3.60;;;;;;;;;;5022380;28;20087;-40
2023/10/03 01:30:16;;;;;;;17.55;2.65;;;;;;;;;;5026941;28;20056;-42
2023/10/03 01:32:56;;;;;;;23.67;3.20;;;;;;;;;;5022400;28;20041;-39
2023/10/03 01:35:23;;;;;;;12.35;2.60;;;;;;;;;;5023957;28;20116;-41
2023/10/03 01:37:50;;;;;;;19.50;2.67;;;;;;;;;;5011400;28;20105;-40
2023/10/03 01:40:20;;;;;;;19.95;3.17;;;;;;;;;;5023055;28;20033;-42
2023/10/03 01:42:48;;;;;;;21.27;3.13;;;;;;;;;;5030355;28;20467;-40
2023/10/03 01:45:17;;;;;;;22.70;2.63;;;;;;;;;;5031114;28;20026;-40
2023/10/03 01:47:51;;;;;;;18.85;3.10;;;;;;;;;;5031053;28;20523;-40
2023/10/03 01:50:22;;;;;;;14.35;3.10;;;;;;;;;;5019806;28;20095;-40
2023/10/03 01:52:49;;;;;;;23.13;2.97;;;;;;;;;;5018928;28;20022;-42
2023/10/03 01:55:18;;;;;;;14.88;2.40;;;;;;;;;;5024326;28;20036;-42
2023/10/03 01:57:45;;;;;;;14.68;2.60;;;;;;;;;;5031250;28;20037;-42
2023/10/03 02:00:26;;;;;;;21.35;3.22;;;;;;;;;;5030490;28;20038;-42
2023/10/03 02:02:53;;;;;;;15.75;2.72;;;;;;;;;;5024229;28;20022;-42
2023/10/03 02:05:25;;;;;;;20.35;3.45;;;;;;;;;;5025443;28;20025;-41
2023/10/03 02:07:55;;;;;;;13.40;2.38;;;;;;;;;;5024788;28;20420;-41
2023/10/03 02:10:22;;;;;;;17.60;3.03;;;;;;;;;;5021006;28;20103;-42
2023/10/03 02:12:50;;;;;;;11.35;2.47;;;;;;;;;;5019319;28;20060;-41
2023/10/03 02:15:26;;;;;;;14.32;2.10;;;;;;;;;;5019332;28;20069;-40
2023/10/03 02:17:55;;;;;;;15.73;2.95;;;;;;;;;;5031639;28;20155;-40
2023/10/03 02:20:25;;;;;;;11.07;2.30;;;;;;;;;;5031924;28;20017;-41
2023/10/03 02:22:56;;;;;;;9.13;2.30;;;;;;;;;;5033728;28;20048;-41
2023/10/03 02:25:23;;;;;;;15.73;2.22;;;;;;;;;;5033959;28;20061;-41
2023/10/03 02:27:53;;;;;;;10.02;2.20;;;;;;;;;;5034901;28;20029;-42
2023/10/03 02:30:23;;;;;;;11.63;2.63;;;;;;;;;;5034856;28;20048;-41
2023/10/03 02:32:57;;;;;;;13.52;2.60;;;;;;;;;;5034465;28;20479;-40
2023/10/03 02:35:26;;;;;;;5.70;1.80;;;;;;;;;;5034633;28;20364;-39
2023/10/03 02:37:55;;;;;;;10.05;2.30;;;;;;;;;;5034684;28;20080;-40
2023/10/03 02:40:26;;;;;;;12.98;2.35;;;;;;;;;;5034753;28;20029;-40
2023/10/03 02:42:54;;;;;;;8.43;2.28;;;;;;;;;;5034630;28;20037;-40
2023/10/03 02:45:25;;;;;;;8.95;2.33;;;;;;;;;;5034679;28;20025;-40
2023/10/03 02:47:56;;;;;;;12.50;2.30;;;;;;;;;;5034245;28;20495;-41
2023/10/03 02:50:23;;;;;;;8.32;1.90;;;;;;;;;;5034576;28;20063;-41
2023/10/03 02:52:52;;;;;;;15.00;2.30;;;;;;;;;;5034573;28;20037;-41
2023/10/03 02:55:19;;;;;;;8.52;2.22;;;;;;;;;;5034166;28;20111;-41
2023/10/03 02:57:47;;;;;;;8.60;2.38;;;;;;;;;;5034446;28;20154;-42
2023/10/03 03:00:14;;;;;;;10.02;2.20;;;;;;;;;;5034469;28;20036;-41
2023/10/03 03:02:48;;;;;;;8.65;2.17;;;;;;;;;;5034333;28;20038;-41
2023/10/03 03:05:16;;;;;;;10.75;2.60;;;;;;;;;;5034093;28;20053;-42
2023/10/03 03:07:45;;;;;;;10.13;2.30;;;;;;;;;;5034296;28;20033;-41
2023/10/03 03:10:17;;;;;;;16.13;2.20;;;;;;;;;;5034099;28;20357;-41
2023/10/03 03:12:45;;;;;;;12.30;2.35;;;;;;;;;;5034424;28;20030;-41
2023/10/03 03:15:17;;;;;;;8.13;2.42;;;;;;;;;;5033773;28;20029;-41
2023/10/03 03:17:45;;;;;;;10.55;2.35;;;;;;;;;;5034006;28;20072;-41
2023/10/03 03:20:18;;;;;;;10.52;2.47;;;;;;;;;;5033976;28;20033;-41
2023/10/03 03:22:49;;;;;;;8.48;2.00;;;;;;;;;;5034071;28;20025;-41
2023/10/03 03:25:35;;;;;;;7.90;2.30;;;;;;;;;;5033735;28;20753;-41
2023/10/03 03:28:23;;;;;;;6.47;2.03;;;;;;;;;;5032878;28;20054;-41
2023/10/03 03:30:57;;;;;;;10.32;2.28;;;;;;;;;;5033817;28;20029;-41
2023/10/03 03:33:27;;;;;;;10.25;2.13;;;;;;;;;;5033806;28;20075;-41
2023/10/03 03:35:55;;;;;;;7.97;2.00;;;;;;;;;;5033482;28;20059;-41
2023/10/03 03:38:22;;;;;;;5.57;2.30;;;;;;;;;;5033665;28;20034;-41
2023/10/03 03:40:59;;;;;;;8.35;2.20;;;;;;;;;;5033630;28;20021;-41
2023/10/03 03:43:26;;;;;;;8.77;2.33;;;;;;;;;;5033618;28;20381;-41
2023/10/03 03:45:53;;;;;;;9.93;2.03;;;;;;;;;;5033497;28;20037;-41
2023/10/03 03:48:22;;;;;;;11.88;2.35;;;;;;;;;;5033434;28;20056;-41
2023/10/03 03:50:52;;;;;;;11.40;2.30;;;;;;;;;;5033484;28;20041;-41
2023/10/03 03:53:19;;;;;;;8.52;2.15;;;;;;;;;;5033516;28;20056;-41
2023/10/03 03:55:47;;;;;;;8.00;2.13;;;;;;;;;;5033342;28;20026;-41
2023/10/03 03:58:20;;;;;;;9.88;2.00;;;;;;;;;;5033398;28;20398;-41
2023/10/03 04:00:50;;;;;;;9.13;2.17;;;;;;;;;;5033227;28;20407;-39
2023/10/03 04:03:18;;;;;;;8.93;2.10;;;;;;;;;;5033191;28;20037;-39
2023/10/03 04:05:47;;;;;;;8.13;2.08;;;;;;;;;;5033141;28;20384;-40
2023/10/03 04:08:15;;;;;;;7.28;2.00;;;;;;;;;;5033178;28;20185;-40
2023/10/03 04:10:46;;;;;;;8.80;2.20;;;;;;;;;;5033070;28;20079;-40
2023/10/03 04:13:16;;;;;;;7.78;2.08;;;;;;;;;;5033115;28;20123;-39
2023/10/03 04:15:45;;;;;;;8.75;1.85;;;;;;;;;;5032930;28;20472;-40
2023/10/03 04:18:14;;;;;;;7.15;2.00;;;;;;;;;;5032975;28;20033;-40
2023/10/03 04:20:44;;;;;;;6.93;2.17;;;;;;;;;;5032869;28;20033;-40
2023/10/03 04:23:11;;;;;;;10.52;2.35;;;;;;;;;;5033089;28;20419;-41
2023/10/03 04:25:39;;;;;;;7.15;2.10;;;;;;;;;;5032837;28;20037;-42
2023/10/03 04:28:09;;;;;;;6.72;2.25;;;;;;;;;;5032753;28;20090;-41
2023/10/03 04:30:37;;;;;;;10.13;2.08;;;;;;;;;;5032743;28;20034;-41
2023/10/03 04:33:05;;;;;;;6.70;1.92;;;;;;;;;;5032693;28;20029;-41
2023/10/03 04:35:32;;;;;;;5.88;1.75;;;;;;;;;;5032836;28;20033;-41
2023/10/03 04:37:59;;;;;;;7.90;2.10;;;;;;;;;;5032705;28;20068;-41
2023/10/03 04:40:33;;;;;;;9.32;1.73;;;;;;;;;;5032414;28;20025;-41
2023/10/03 04:43:06;;;;;;;6.80;2.00;;;;;;;;;;5032472;28;20045;-41
2023/10/03 04:45:35;;;;;;;6.95;1.83;;;;;;;;;;5032370;28;20033;-41
2023/10/03 04:48:03;;;;;;;8.27;2.10;;;;;;;;;;5032210;28;20512;-41
2023/10/03 04:50:30;;;;;;;5.60;1.90;;;;;;;;;;5032378;28;20033;-41
2023/10/03 04:52:59;;;;;;;9.70;2.22;;;;;;;;;;5031115;28;20372;-41
2023/10/03 04:55:26;;;;;;;10.30;2.15;;;;;;;;;;5032171;28;20404;-40
2023/10/03 04:57:54;;;;;;;8.63;2.10;;;;;;;;;;5032157;28;20148;-41
2023/10/03 05:00:23;;;;;;;6.32;1.63;;;;;;;;;;5032126;28;20492;-41
2023/10/03 05:02:51;;;;;;;9.57;1.90;;;;;;;;;;5032236;28;20057;-41
2023/10/03 05:05:20;;;;;;;9.50;2.00;;;;;;;;;;5032079;28;20021;-41
2023/10/03 05:07:53;;;;;;;7.05;1.90;;;;;;;;;;5032042;28;20037;-41
2023/10/03 05:10:21;;;;;;;9.00;2.03;;;;;;;;;;5032194;28;20052;-40
2023/10/03 05:12:50;;;;;;;9.10;1.98;;;;;;;;;;5031864;28;20049;-40
2023/10/03 05:15:17;;;;;;;5.40;1.52;;;;;;;;;;5031817;28;20614;-41
2023/10/03 05:17:44;;;;;;;7.35;1.80;;;;;;;;;;5032161;28;20127;-41
2023/10/03 05:20:15;;;;;;;6.13;1.75;;;;;;;;;;5032135;28;20049;-40
2023/10/03 05:22:42;;;;;;;9.27;2.20;;;;;;;;;;5031872;28;20032;-41
2023/10/03 05:25:13;;;;;;;6.07;1.63;;;;;;;;;;5031775;28;20025;-44
2023/10/03 05:27:43;;;;;;;6.15;1.95;;;;;;;;;;5031754;28;20026;-39
2023/10/03 05:30:13;;;;;;;6.93;1.67;;;;;;;;;;5031828;28;20030;-39
2023/10/03 05:32:41;;;;;;;8.23;1.90;;;;;;;;;;5031758;28;20033;-39
2023/10/03 05:35:08;;;;;;;5.50;1.80;;;;;;;;;;5031633;28;20111;-39
2023/10/03 05:37:35;;;;;;;9.82;1.83;;;;;;;;;;5031485;28;20033;-39
2023/10/03 05:40:12;;;;;;;5.20;1.80;;;;;;;;;;5031719;28;20037;-39
2023/10/03 05:42:47;;;;;;;8.73;1.35;;;;;;;;;;5031448;28;20498;-41
2023/10/03 05:45:19;;;;;;;9.00;2.15;;;;;;;;;;5031439;28;20041;-41
2023/10/03 05:47:47;;;;;;;10.20;1.60;;;;;;;;;;5028638;28;20048;-41
2023/10/03 05:50:21;;;;;;;9.30;1.90;;;;;;;;;;5031573;28;20173;-41
2023/10/03 05:52:49;;;;;;;11.00;2.08;;;;;;;;;;5030908;28;20025;-43
2023/10/03 05:55:16;;;;;;;5.72;1.55;;;;;;;;;;5031481;28;20030;-40
2023/10/03 05:57:43;;;;;;;5.57;1.65;;;;;;;;;;5031577;28;20561;-40
2023/10/03 06:00:16;;;;;;;9.02;2.28;;;;;;;;;;5031336;28;20045;-41
2023/10/03 06:02:43;;;;;;;;;;;;;;;;;;5030569;28;20034;-39
2023/10/03 06:05:16;;;;;;;6.30;1.77;;;;;;;;;;5031234;28;19955;-39
2023/10/03 06:07:44;;;;;;;7.40;1.77;;;;;;;;;;5031459;28;20030;-39
2023/10/03 06:10:13;;;;;;;6.40;1.70;;;;;;;;;;5031452;28;20025;-39
2023/10/03 06:12:40;;;;;;;6.97;1.67;;;;;;;;;;5031238;28;20033;-39
2023/10/03 06:15:07;;;;;;;7.00;1.95;;;;;;;;;;5031140;28;20033;-39
2023/10/03 06:17:35;;;;;;;6.68;1.55;;;;;;;;;;5031355;28;20031;-40
2023/10/03 06:20:03;;;;;;;6.80;1.80;;;;;;;;;;5031309;28;20048;-39
2023/10/03 06:22:32;;;;;;;5.63;1.40;;;;;;;;;;5031267;28;20571;-39
2023/10/03 06:25:00;;;;;;;4.75;1.40;;;;;;;;;;5031199;28;20041;-39
2023/10/03 06:27:31;;;;;;;5.65;1.52;;;;;;;;;;5030919;28;20057;-39
2023/10/03 06:29:58;;;;;;;4.13;1.60;;;;;;;;;;5031235;28;20551;-39
2023/10/03 06:32:25;;;;;;;4.03;1.30;;;;;;;;;;5031281;28;20117;-39
2023/10/03 06:34:52;;;;;;;6.85;1.50;;;;;;;;;;5031145;28;20038;-39
2023/10/03 06:37:19;;;;;;;5.55;1.38;;;;;;;;;;5030983;28;20038;-40
2023/10/03 06:39:47;;;;;;;6.82;1.60;;;;;;;;;;5031202;28;20038;-39
2023/10/03 06:42:14;;;;;;;3.42;1.50;;;;;;;;;;5031196;28;20037;-39
2023/10/03 06:44:41;;;;;;;6.55;1.73;;;;;;;;;;5030906;28;20511;-39
2023/10/03 06:47:08;;;;;;;6.70;1.80;;;;;;;;;;5030810;28;20542;-39
2023/10/03 06:49:35;;;;;;;5.18;1.50;;;;;;;;;;5030983;28;20061;-39
2023/10/03 06:52:03;;;;;;;3.17;1.02;;;;;;;;;;5031098;28;20036;-39
2023/10/03 06:54:30;;;;;;;5.30;1.40;;;;;;;;;;5030855;28;20038;-39
2023/10/03 06:56:57;;;;;;;4.93;1.33;;;;;;;;;;5030828;28;20041;-39
2023/10/03 06:59:24;;;;;;;5.57;1.30;;;;;;;;;;5030988;28;20033;-39
2023/10/03 07:01:51;;;;;;;7.70;1.38;;;;;;;;;;5030929;28;20021;-39
2023/10/03 07:04:20;;;;;;;3.72;1.13;;;;;;;;;;5032721;28;20372;-39
2023/10/03 07:06:50;;;;;;;5.93;1.85;;;;;;;;;;5034314;28;20808;-39
2023/10/03 07:09:18;;;;;;;5.03;1.30;;;;;;;;;;5034390;28;20037;-41
2023/10/03 07:11:47;;;;;;;9.02;1.80;;;;;;;;;;5034576;28;20483;-41
2023/10/03 07:14:14;;;;;;;9.05;1.83;;;;;;;;;;5034149;28;20029;-41
2023/10/03 07:16:41;;;;;;;6.07;1.55;;;;;;;;;;5034039;28;20071;-41
2023/10/03 07:19:13;;;;;;;7.40;1.52;;;;;;;;;;5034214;28;20065;-40
2023/10/03 07:21:41;;;;;;;4.70;1.40;;;;;;;;;;5034113;28;20037;-41
2023/10/03 07:24:08;;;;;;;7.90;1.83;;;;;;;;;;5033998;28;20104;-40
2023/10/03 07:26:35;;;;;;;5.90;1.55;;;;;;;;;;5033973;28;20037;-40
2023/10/03 07:29:02;;;;;;;4.28;1.27;;;;;;;;;;5034154;28;20105;-39
2023/10/03 07:31:34;;;;;;;7.60;1.40;;;;;;;;;;5034115;28;20017;-39
2023/10/03 07:34:01;;;;;;;6.30;1.50;;;;;;;;;;5033874;28;20038;-39
2023/10/03 07:36:28;;;;;;;4.00;1.38;;;;;;;;;;5033799;28;20037;-39
2023/10/03 07:38:55;;;;;;;5.10;1.40;;;;;;;;;;5033832;28;20033;-39
2023/10/03 07:41:22;;;;;;;5.65;1.42;;;;;;;;;;5033857;28;20025;-39
2023/10/03 07:43:52;;;;;;;5.15;1.15;;;;;;;;;;5033660;28;20068;-39
2023/10/03 07:46:22;;;;;;;4.30;1.42;;;;;;;;;;5033772;28;20060;-39
2023/10/03 07:48:52;;;;;;;5.47;1.33;;;;;;;;;;5033449;28;20053;-39
2023/10/03 07:51:19;;;;;;;4.15;1.25;;;;;;;;;;5033509;28;20112;-39
2023/10/03 07:53:48;;;;;;;5.03;1.35;;;;;;;;;;5033695;28;20487;-39
2023/10/03 07:56:25;;;;;;;5.77;1.07;;;;;;;;;;5033528;28;20783;-39
2023/10/03 07:58:55;;;;;;;8.15;1.40;;;;;;;;;;5033503;28;20025;-39
2023/10/03 08:01:25;;;;;;;6.28;1.45;;;;;;;;;;5033521;28;20033;-40
2023/10/03 08:03:56;;;;;;;5.28;1.30;;;;;;;;;;5033248;28;20039;-39
2023/10/03 08:06:23;;;;;;;8.57;1.40;;;;;;;;;;5033387;28;20025;-39
2023/10/03 08:08:55;;;;;;;7.75;0.98;;;;;;;;;;5033224;28;20021;-39
2023/10/03 08:11:28;;;;;;;3.67;0.95;;;;;;;;;;5033259;28;20037;-39
2023/10/03 08:13:56;;;;;;;6.68;1.30;;;;;;;;;;5032860;28;20088;-40
2023/10/03 08:16:23;;;;;;;8.77;1.70;;;;;;;;;;5033241;28;20430;-40
2023/10/03 08:18:57;;;;;;;5.80;1.35;;;;;;;;;;5033155;28;20038;-39
2023/10/03 08:21:27;;;;;;;7.25;1.30;;;;;;;;;;5032994;28;20091;-39
2023/10/03 08:23:55;;;;;;;7.07;1.35;;;;;;;;;;5032903;28;20040;-39
2023/10/03 08:26:26;;;;;;;6.28;1.30;;;;;;;;;;5032991;28;20053;-39
2023/10/03 08:29:03;;;;;;;8.80;1.52;;;;;;;;;;5032982;28;20021;-40
2023/10/03 08:31:31;;;;;;;4.72;1.10;;;;;;;;;;5033115;28;20476;-39
2023/10/03 08:33:58;;;;;;;7.85;1.60;;;;;;;;;;5032764;28;20053;-39
2023/10/03 08:36:28;;;;;;;5.05;2.15;;;;;;;;;;5032712;28;20479;-39
2023/10/03 08:39:04;;;;;;;8.52;1.45;;;;;;;;;;5032710;28;20404;-40
2023/10/03 08:41:54;;;;;;;6.95;1.80;;;;;;;;;;5032719;28;20391;-39
2023/10/03 08:44:24;;;;;;;7.10;1.83;;;;;;;;;;5027186;28;20467;-41
2023/10/03 08:46:58;;;;;;;4.10;1.30;;;;;;;;;;5032577;28;20033;-40
2023/10/03 08:49:38;;;;;;;6.32;1.52;;;;;;;;;;5032411;28;20450;-39
2023/10/03 08:52:09;;;;;;;6.10;1.48;;;;;;;;;;5032041;28;20124;-39
2023/10/03 08:54:39;;;;;;;7.57;1.52;;;;;;;;;;5032308;28;20035;-39
2023/10/03 08:57:09;;;;;;;5.60;1.50;;;;;;;;;;5032227;28;20045;-39
2023/10/03 08:59:40;;;;;;;6.97;1.80;;;;;;;;;;5032276;28;20069;-40
2023/10/03 09:02:11;;;;;;;4.72;1.50;;;;;;;;;;5031854;28;20045;-39
2023/10/03 09:04:39;;;;;;;5.95;1.33;;;;;;;;;;5032168;28;20030;-39
2023/10/03 09:07:09;;;;;;;7.18;1.40;;;;;;;;;;5032215;28;20037;-40
2023/10/03 09:09:41;;;;;;;3.53;1.30;;;;;;;;;;5031971;28;20048;-40
2023/10/03 09:12:13;;;;;;;6.63;1.60;;;;;;;;;;5032054;28;20030;-39
2023/10/03 09:14:40;;;;;;;3.05;1.30;;;;;;;;;;5031896;28;20368;-39
2023/10/03 09:17:07;;;;;;;4.45;1.10;;;;;;;;;;5031974;28;20029;-39
2023/10/03 09:19:45;;;;;;;3.05;1.30;;;;;;;;;;5031951;28;20061;-39
2023/10/03 09:22:31;;;;;;;4.90;1.48;;;;;;;;;;5031618;28;20033;-39
2023/10/03 09:24:58;;;;;;;5.32;1.50;;;;;;;;;;5026390;28;20503;-41
2023/10/03 09:27:30;;;;;;;4.95;1.90;;;;;;;;;;5011200;28;20049;-40
2023/10/03 09:29:59;;;;;;;2.97;1.25;;;;;;;;;;5015682;28;20034;-39
2023/10/03 09:32:28;;;;;;;4.20;1.10;;;;;;;;;;5019600;28;20033;-40
2023/10/03 09:35:00;;;;;;;5.65;1.20;;;;;;;;;;5020741;28;20519;-39
2023/10/03 09:37:28;;;;;;;;;;;;;;;;;;5020426;28;20471;-39
2023/10/03 09:40:00;;;;;;;6.45;1.73;;;;;;;;;;5020157;28;20325;-39
2023/10/03 09:42:28;;;;;;;6.30;1.35;;;;;;;;;;5022052;28;20056;-40
2023/10/03 09:44:58;;;;;;;6.07;1.20;;;;;;;;;;5020250;28;20551;-39
2023/10/03 09:47:32;;;;;;;6.22;1.30;;;;;;;;;;5029368;28;20140;-39
2023/10/03 09:50:04;;;;;;;5.30;1.45;;;;;;;;;;5031390;28;20022;-39
2023/10/03 09:52:32;;;;;;;6.10;1.42;;;;;;;;;;5031420;28;20422;-39
2023/10/03 09:55:03;;;;;;;3.65;1.38;;;;;;;;;;5031183;28;20037;-39
2023/10/03 09:57:32;;;;;;;7.03;1.63;;;;;;;;;;5031353;28;20037;-39
2023/10/03 10:00:00;;;;;;;3.95;1.33;;;;;;;;;;5031695;28;20037;-39
2023/10/03 10:02:35;;;;;;;8.35;1.50;;;;;;;;;;5031418;28;20120;-39
2023/10/03 10:05:19;;;;;;;4.88;1.42;;;;;;;;;;5027237;28;20030;-39
2023/10/03 10:07:50;;;;;;;8.23;1.48;;;;;;;;;;5022601;28;20041;-40
2023/10/03 10:10:19;;;;;;;5.20;1.42;;;;;;;;;;5030592;28;20455;-39
2023/10/03 10:13:13;;;;;;;4.80;1.40;;;;;;;;;;5031361;28;20426;-39
2023/10/03 10:15:58;;;;;;;8.38;1.45;;;;;;;;;;5031241;28;20099;-40
2023/10/03 10:18:43;;;;;;;6.35;1.27;;;;;;;;;;5031027;28;20038;-40
2023/10/03 10:21:22;;;;;;;5.63;1.40;;;;;;;;;;5031278;28;20049;-40
2023/10/03 10:24:07;;;;;;;4.85;1.27;;;;;;;;;;5031029;28;20021;-40
2023/10/03 10:26:35;;;;;;;7.22;1.30;;;;;;;;;;5031191;28;20482;-40
2023/10/03 10:29:06;;;;;;;4.50;1.30;;;;;;;;;;5031378;28;20505;-40
2023/10/03 10:31:37;;;;;;;5.32;1.33;;;;;;;;;;5030624;28;20111;-40
2023/10/03 10:34:20;;;;;;;5.35;1.58;;;;;;;;;;5030648;28;20590;-39
2023/10/03 10:36:56;;;;;;;6.03;1.40;;;;;;;;;;5030874;28;20046;-40
2023/10/03 10:39:26;;;;;;;5.57;1.38;;;;;;;;;;5034240;28;20045;-39
2023/10/03 10:42:11;;;;;;;4.53;1.60;;;;;;;;;;5034651;28;20025;-39
2023/10/03 10:44:58;;;;;;;2.42;1.15;;;;;;;;;;5034523;28;20432;-39
2023/10/03 10:47:27;;;;;;;8.98;1.63;;;;;;;;;;5034704;28;20034;-39
2023/10/03 10:49:57;;;;;;;6.57;1.63;;;;;;;;;;5034760;28;20040;-39
2023/10/03 10:52:24;;;;;;;8.55;1.40;;;;;;;;;;5034751;28;20383;-39
2023/10/03 10:54:51;;;;;;;4.40;1.48;;;;;;;;;;5034568;28;20025;-39
2023/10/03 10:57:18;;;;;;;8.07;1.70;;;;;;;;;;5034501;28;20034;-39
2023/10/03 10:59:46;;;;;;;7.95;1.75;;;;;;;;;;5034552;28;20041;-39
2023/10/03 11:02:24;;;;;;;9.23;1.52;;;;;;;;;;5034647;28;20034;-39
2023/10/03 11:04:58;;;;;;;3.28;1.38;;;;;;;;;;5034320;28;20037;-39
2023/10/03 11:07:29;;;;;;;5.47;1.40;;;;;;;;;;5034463;28;20534;-40
2023/10/03 11:10:06;;;;;;;11.43;1.88;;;;;;;;;;5031569;28;20133;-39
2023/10/03 11:12:35;;;;;;;14.73;2.10;;;;;;;;;;5022253;28;20037;-39
2023/10/03 11:15:05;;;;;;;13.60;1.95;;;;;;;;;;5033648;28;20064;-39
2023/10/03 11:17:33;;;;;;;9.23;1.95;;;;;;;;;;5033260;28;20407;-40
2023/10/03 11:20:08;;;;;;;12.43;2.28;;;;;;;;;;5033643;28;20034;-40
2023/10/03 11:22:38;;;;;;;6.18;1.65;;;;;;;;;;5018207;28;20120;-40
2023/10/03 11:25:10;;;;;;;12.38;1.67;;;;;;;;;;5028599;28;20030;-40
2023/10/03 11:27:37;;;;;;;8.35;1.77;;;;;;;;;;5033589;28;20041;-40
2023/10/03 11:30:14;;;;;;;9.93;2.05;;;;;;;;;;5033040;28;20041;-40
2023/10/03 11:32:41;;;;;;;11.25;2.00;;;;;;;;;;5033483;28;20038;-40
2023/10/03 11:35:18;;;;;;;13.80;2.15;;;;;;;;;;5032661;28;20029;-40
2023/10/03 11:37:46;;;;;;;10.23;2.03;;;;;;;;;;5033384;28;20056;-40
2023/10/03 11:40:14;;;;;;;11.55;1.83;;;;;;;;;;5033054;28;20037;-39
2023/10/03 11:42:45;;;;;;;9.70;1.98;;;;;;;;;;5020602;28;20045;-39
2023/10/03 11:45:33;;;;;;;10.73;1.80;;;;;;;;;;5019483;28;20033;-39
2023/10/03 11:48:01;;;;;;;13.18;2.00;;;;;;;;;;5032676;28;20377;-40
2023/10/03 11:50:28;;;;;;;22.67;1.90;;;;;;;;;;5032517;28;20038;-39
2023/10/03 11:53:00;;;;;;;18.73;2.35;;;;;;;;;;5033011;28;20518;-42
2023/10/03 11:55:31;;;;;;;77.93;5.03;;;;;;;;;;5016840;28;20050;-41
2023/10/03 11:57:58;;;;;;;61.33;4.20;;;;;;;;;;5032043;28;20033;-41
2023/10/03 12:00:26;;;;;;;40.30;2.72;;;;;;;;;;5031306;28;20499;-42
2023/10/03 12:02:53;;;;;;;91.45;10.15;;;;;;;;;;5032409;28;20033;-41
2023/10/03 12:05:21;;;;;;;110.38;12.02;;;;;;;;;;5032702;28;20063;-42
2023/10/03 12:07:50;;;;;;;77.70;8.70;;;;;;;;;;5019527;28;20029;-42
2023/10/03 12:10:19;;;;;;;78.60;7.80;;;;;;;;;;5031943;28;20033;-41
2023/10/03 12:12:48;;;;;;;63.22;6.78;;;;;;;;;;5019898;28;20523;-41
2023/10/03 12:15:16;;;;;;;61.50;6.50;;;;;;;;;;5027053;28;20483;-40
2023/10/03 12:17:47;;;;;;;56.83;5.97;;;;;;;;;;5032343;28;20134;-42
2023/10/03 12:20:16;;;;;;;52.70;6.35;;;;;;;;;;5031722;28;20422;-43
2023/10/03 12:22:44;;;;;;;49.72;6.45;;;;;;;;;;5030106;28;20029;-45
2023/10/03 12:25:12;;;;;;;46.47;6.75;;;;;;;;;;5031986;28;20031;-39
2023/10/03 12:27:43;;;;;;;39.72;6.20;;;;;;;;;;5032194;28;20029;-40
2023/10/03 12:30:15;;;;;;;70.75;8.15;;;;;;;;;;5032141;28;20147;-42
2023/10/03 12:32:46;;;;;;;51.30;7.28;;;;;;;;;;5032239;28;20033;-40
2023/10/03 12:35:13;;;;;;;74.35;9.07;;;;;;;;;;5031738;28;20053;-40
2023/10/03 12:37:40;;;;;;;68.13;6.80;;;;;;;;;;5032253;28;20042;-40
2023/10/03 12:40:16;;;;;;;57.17;7.35;;;;;;;;;;5032092;28;20038;-42
2023/10/03 12:42:50;;;;;;;46.75;6.07;;;;;;;;;;5031955;28;20037;-40
2023/10/03 12:45:17;;;;;;;45.60;5.25;;;;;;;;;;5031973;28;20037;-40
2023/10/03 12:47:48;;;;;;;38.58;4.88;;;;;;;;;;5031556;28;20037;-43
2023/10/03 12:50:19;;;;;;;40.25;5.10;;;;;;;;;;5031873;28;20029;-42
2023/10/03 12:52:47;;;;;;;29.80;4.43;;;;;;;;;;5031539;28;20064;-40
2023/10/03 12:55:16;;;;;;;32.20;4.43;;;;;;;;;;5031592;28;20434;-41
2023/10/03 12:57:46;;;;;;;29.95;4.60;;;;;;;;;;5031458;28;20046;-40
2023/10/03 13:00:15;;;;;;;27.10;4.38;;;;;;;;;;5031886;28;20430;-41
2023/10/03 13:02:44;;;;;;;30.55;4.50;;;;;;;;;;5031419;28;20026;-40
2023/10/03 13:05:12;;;;;;;28.00;4.45;;;;;;;;;;5030201;28;20395;-42
2023/10/03 13:07:47;;;;;;;27.15;4.00;;;;;;;;;;5031669;28;20475;-40
2023/10/03 13:10:19;;;;;;;22.27;3.50;;;;;;;;;;5031759;28;20037;-40
2023/10/03 13:12:46;;;;;;;20.95;3.70;;;;;;;;;;5031735;28;20117;-40
2023/10/03 13:15:20;;;;;;;13.85;3.22;;;;;;;;;;5031386;28;20022;-39
2023/10/03 13:17:48;;;;;;;17.33;2.95;;;;;;;;;;5031679;28;20169;-41
2023/10/03 13:20:18;;;;;;;20.80;3.03;;;;;;;;;;5031503;28;20033;-40
2023/10/03 13:22:46;;;;;;;14.50;2.50;;;;;;;;;;5031654;28;20041;-44
2023/10/03 13:25:18;;;;;;;17.95;2.92;;;;;;;;;;5030961;28;20037;-42
2023/10/03 13:27:47;;;;;;;15.30;2.85;;;;;;;;;;5031551;28;20033;-42
2023/10/03 13:30:24;;;;;;;18.48;2.70;;;;;;;;;;5031266;28;20063;-40
2023/10/03 13:32:53;;;;;;;18.63;3.50;;;;;;;;;;5030965;28;20484;-40
2023/10/03 13:35:21;;;;;;;18.38;3.33;;;;;;;;;;5031098;28;20072;-42
2023/10/03 13:37:49;;;;;;;12.02;2.40;;;;;;;;;;5031027;28;20049;-40
2023/10/03 13:40:17;;;;;;;21.60;2.88;;;;;;;;;;5030878;28;20025;-40
2023/10/03 13:42:44;;;;;;;9.70;2.60;;;;;;;;;;5031310;28;20471;-40
2023/10/03 13:45:14;;;;;;;14.45;2.92;;;;;;;;;;5028037;28;20042;-42
2023/10/03 13:47:49;;;;;;;15.85;2.90;;;;;;;;;;5030955;28;20053;-40
2023/10/03 13:50:17;;;;;;;9.85;2.20;;;;;;;;;;5029876;28;20041;-42
2023/10/03 13:52:51;;;;;;;16.15;2.90;;;;;;;;;;5030726;28;20539;-42
2023/10/03 13:55:25;;;;;;;14.35;2.30;;;;;;;;;;5030442;28;20068;-42
2023/10/03 13:57:55;;;;;;;12.68;2.15;;;;;;;;;;5030697;28;20136;-42
2023/10/03 14:00:22;;;;;;;11.05;1.85;;;;;;;;;;5030502;28;20033;-40
2023/10/03 14:02:50;;;;;;;11.20;2.08;;;;;;;;;;5030983;28;20039;-42
2023/10/03 14:05:37;;;;;;;14.93;2.10;;;;;;;;;;5030801;28;20076;-39
2023/10/03 14:08:04;;;;;;;13.50;1.88;;;;;;;;;;5030953;28;20037;-42
2023/10/03 14:10:32;;;;;;;16.73;2.20;;;;;;;;;;5030771;28;20376;-42
2023/10/03 14:12:59;;;;;;;5.20;1.35;;;;;;;;;;5032510;28;20087;-40
2023/10/03 14:15:29;;;;;;;10.18;1.90;;;;;;;;;;5034763;28;20439;-43
2023/10/03 14:17:57;;;;;;;7.72;1.95;;;;;;;;;;5034636;28;20042;-40
2023/10/03 14:20:26;;;;;;;7.82;1.58;;;;;;;;;;5034471;28;20136;-42
2023/10/03 14:22:54;;;;;;;11.10;2.10;;;;;;;;;;5034488;28;20036;-42
2023/10/03 14:25:21;;;;;;;13.02;1.60;;;;;;;;;;5021438;28;20483;-40
2023/10/03 14:27:49;;;;;;;6.60;1.60;;;;;;;;;;5034614;28;20483;-42
2023/10/03 14:30:17;;;;;;;6.90;1.50;;;;;;;;;;5034511;28;20033;-40
2023/10/03 14:32:46;;;;;;;6.15;1.50;;;;;;;;;;5034450;28;20037;-41
2023/10/03 14:35:13;;;;;;;7.57;1.42;;;;;;;;;;5034499;28;20034;-40
2023/10/03 14:37:41;;;;;;;6.15;1.50;;;;;;;;;;5034138;28;20418;-42
2023/10/03 14:40:15;;;;;;;7.25;1.50;;;;;;;;;;5034566;28;20033;-39
2023/10/03 14:42:43;;;;;;;7.55;1.67;;;;;;;;;;5034185;28;20033;-40
2023/10/03 14:45:13;;;;;;;3.13;1.50;;;;;;;;;;5034677;28;20036;-39
2023/10/03 14:47:41;;;;;;;4.85;1.25;;;;;;;;;;5034375;28;20057;-40
2023/10/03 14:50:08;;;;;;;4.65;1.50;;;;;;;;;;5034495;28;20045;-40
2023/10/03 14:52:35;;;;;;;7.68;1.38;;;;;;;;;;5034661;28;20521;-40
2023/10/03 14:55:02;;;;;;;8.25;1.30;;;;;;;;;;5034413;28;20021;-40
2023/10/03 14:57:29;;;;;;;7.80;1.70;;;;;;;;;;5034321;28;20037;-40
2023/10/03 14:59:56;;;;;;;8.40;1.60;;;;;;;;;;5034441;28;20029;-39